createdAt,value
2023-11-30T00:00:17.568Z,-3.56
2023-11-30T00:02:48.384Z,-3.54
2023-11-30T00:05:22.790Z,-3.51
2023-11-30T00:07:54.577Z,-3.52
2023-11-30T00:10:25.390Z,-3.55
2023-11-30T00:12:56.554Z,-3.58
2023-11-30T00:15:27.426Z,-3.61
2023-11-30T00:17:58.398Z,-3.67
2023-11-30T00:20:29.309Z,-3.69
2023-11-30T00:23:00.073Z,-3.73
2023-11-30T00:25:30.837Z,-3.74
2023-11-30T00:28:01.684Z,-3.77
2023-11-30T00:30:32.566Z,-3.78
2023-11-30T00:33:03.645Z,-3.77
2023-11-30T00:35:34.529Z,-3.79
2023-11-30T00:38:05.518Z,-3.79
2023-11-30T00:40:38.964Z,-3.78
2023-11-30T00:43:10.032Z,-3.78
2023-11-30T00:45:40.944Z,-3.78
2023-11-30T00:48:11.899Z,-3.76
2023-11-30T00:50:42.861Z,-3.74
2023-11-30T00:53:13.745Z,-3.73
2023-11-30T00:55:44.533Z,-3.73
2023-11-30T00:58:15.329Z,-3.71
2023-11-30T01:00:46.641Z,-3.70
2023-11-30T01:03:17.471Z,-3.70
2023-11-30T01:05:48.322Z,-3.71
2023-11-30T01:08:19.107Z,-3.70
2023-11-30T01:10:49.943Z,-3.72
2023-11-30T01:13:20.701Z,-3.75
2023-11-30T01:15:51.693Z,-3.77
2023-11-30T01:18:22.593Z,-3.80
2023-11-30T01:20:53.417Z,-3.83
2023-11-30T01:23:24.400Z,-3.83
2023-11-30T01:25:55.139Z,-3.85
2023-11-30T01:28:25.995Z,-3.85
2023-11-30T01:30:56.729Z,-3.86
2023-11-30T01:33:27.639Z,-3.85
2023-11-30T01:35:58.523Z,-3.86
2023-11-30T01:38:30.202Z,-3.85
2023-11-30T01:41:00.969Z,-3.84
2023-11-30T01:43:31.769Z,-3.85
2023-11-30T01:46:04.311Z,-3.86
2023-11-30T01:48:35.753Z,-3.86
2023-11-30T01:51:09.366Z,-3.88
2023-11-30T01:53:40.897Z,-3.87
2023-11-30T01:56:13.382Z,-3.87
2023-11-30T01:58:45.074Z,-3.88
2023-11-30T02:01:16.029Z,-3.87
2023-11-30T02:03:47.553Z,-3.85
2023-11-30T02:06:20.333Z,-3.81
2023-11-30T02:08:51.364Z,-3.77
2023-11-30T02:11:22.295Z,-3.74
2023-11-30T02:13:53.438Z,-3.73
2023-11-30T02:16:24.318Z,-3.74
2023-11-30T02:18:55.236Z,-3.72
2023-11-30T02:21:26.240Z,-3.69
2023-11-30T02:23:57.112Z,-3.66
2023-11-30T02:26:27.903Z,-3.64
2023-11-30T02:28:58.622Z,-3.62
2023-11-30T02:31:29.436Z,-3.60
2023-11-30T02:34:00.329Z,-3.60
2023-11-30T02:36:31.168Z,-3.59
2023-11-30T02:39:02.053Z,-3.59
2023-11-30T02:41:32.843Z,-3.59
2023-11-30T02:44:03.686Z,-3.59
2023-11-30T02:46:34.549Z,-3.58
2023-11-30T02:49:05.317Z,-3.56
2023-11-30T02:51:36.851Z,-3.54
2023-11-30T02:54:07.684Z,-3.52
2023-11-30T02:56:42.878Z,-3.52
2023-11-30T02:59:13.608Z,-3.50
2023-11-30T03:01:48.528Z,-3.49
2023-11-30T03:04:20.161Z,-3.49
2023-11-30T03:06:52.800Z,-3.48
2023-11-30T03:09:23.695Z,-3.45
2023-11-30T03:11:55.117Z,-3.44
2023-11-30T03:14:25.842Z,-3.44
2023-11-30T03:16:57.753Z,-3.41
2023-11-30T03:19:29.001Z,-3.37
2023-11-30T03:21:59.791Z,-3.34
2023-11-30T03:24:31.698Z,-3.30
2023-11-30T03:27:02.524Z,-3.25
2023-11-30T03:29:33.245Z,-3.23
2023-11-30T03:32:04.011Z,-3.21
2023-11-30T03:34:34.880Z,-3.18
2023-11-30T03:37:05.871Z,-3.18
2023-11-30T03:39:36.781Z,-3.17
2023-11-30T03:42:08.146Z,-3.19
2023-11-30T03:44:38.918Z,-3.20
2023-11-30T03:47:09.721Z,-3.19
2023-11-30T03:49:40.971Z,-3.16
2023-11-30T03:52:11.775Z,-3.13
2023-11-30T03:54:42.779Z,-3.10
2023-11-30T03:57:13.823Z,-3.06
2023-11-30T03:59:44.667Z,-3.01
2023-11-30T04:02:15.552Z,-2.98
2023-11-30T04:04:46.295Z,-2.95
2023-11-30T04:07:17.127Z,-2.93
2023-11-30T04:09:48.741Z,-2.91
2023-11-30T04:12:19.549Z,-2.87
2023-11-30T04:14:50.289Z,-2.84
2023-11-30T04:17:21.059Z,-2.82
2023-11-30T04:19:51.858Z,-2.79
2023-11-30T04:22:23.025Z,-2.77
2023-11-30T04:24:54.815Z,-2.74
2023-11-30T04:27:25.670Z,-2.69
2023-11-30T04:29:56.569Z,-2.65
2023-11-30T04:32:27.865Z,-2.60
2023-11-30T04:34:58.642Z,-2.54
2023-11-30T04:37:29.482Z,-2.49
2023-11-30T04:40:00.473Z,-2.45
2023-11-30T04:42:31.797Z,-2.43
2023-11-30T04:45:04.031Z,-2.42
2023-11-30T04:47:34.849Z,-2.38
2023-11-30T04:50:07.264Z,-2.34
2023-11-30T04:52:38.033Z,-2.30
2023-11-30T04:55:10.849Z,-2.26
2023-11-30T04:57:41.617Z,-2.23
2023-11-30T05:00:14.544Z,-2.21
2023-11-30T05:02:56.422Z,-2.20
2023-11-30T05:05:27.544Z,-2.19
2023-11-30T05:07:58.291Z,-2.16
2023-11-30T05:10:28.978Z,-2.13
2023-11-30T05:12:59.889Z,-2.11
2023-11-30T05:15:30.731Z,-2.09
2023-11-30T05:18:01.689Z,-2.08
2023-11-30T05:20:32.449Z,-2.08
2023-11-30T05:23:03.242Z,-2.08
2023-11-30T05:25:34.496Z,-2.08
2023-11-30T05:28:07.732Z,-2.07
2023-11-30T05:30:38.685Z,-2.04
2023-11-30T05:33:13.619Z,-2.05
2023-11-30T05:35:46.188Z,-2.05
2023-11-30T05:38:17.011Z,-2.06
2023-11-30T05:40:48.267Z,-2.07
2023-11-30T05:43:21.821Z,-2.07
2023-11-30T05:45:52.752Z,-2.08
2023-11-30T05:48:23.881Z,-2.08
2023-11-30T05:50:54.826Z,-2.10
2023-11-30T05:53:25.641Z,-2.10
2023-11-30T05:55:56.621Z,-2.10
2023-11-30T05:58:29.775Z,-2.11
2023-11-30T06:01:00.637Z,-2.13
2023-11-30T06:03:32.064Z,-2.12
2023-11-30T06:06:03.258Z,-2.14
2023-11-30T06:08:34.111Z,-2.15
2023-11-30T06:11:05.775Z,-2.16
2023-11-30T06:13:36.806Z,-2.13
2023-11-30T06:16:08.950Z,-2.11
2023-11-30T06:18:39.754Z,-2.07
2023-11-30T06:21:12.886Z,-2.04
2023-11-30T06:23:45.168Z,-2.00
2023-11-30T06:26:18.778Z,-1.98
2023-11-30T06:28:49.597Z,-1.98
2023-11-30T06:31:20.470Z,-1.96
2023-11-30T06:33:51.940Z,-1.95
2023-11-30T06:36:23.014Z,-1.93
2023-11-30T06:38:54.155Z,-1.93
2023-11-30T06:41:24.941Z,-1.92
2023-11-30T06:43:56.209Z,-1.92
2023-11-30T06:46:27.160Z,-1.91
2023-11-30T06:48:58.612Z,-1.89
2023-11-30T06:51:29.592Z,-1.87
2023-11-30T06:54:00.662Z,-1.85
2023-11-30T06:56:31.628Z,-1.82
2023-11-30T06:59:02.693Z,-1.78
2023-11-30T07:01:34.029Z,-1.74
2023-11-30T07:04:09.697Z,-1.70
2023-11-30T07:06:41.711Z,-1.68
2023-11-30T07:09:13.694Z,-1.65
2023-11-30T07:11:44.653Z,-1.62
2023-11-30T07:14:15.417Z,-1.60
2023-11-30T07:16:46.864Z,-1.57
2023-11-30T07:19:20.190Z,-1.55
2023-11-30T07:21:52.638Z,-1.53
2023-11-30T07:24:23.438Z,-1.50
2023-11-30T07:26:54.274Z,-1.46
2023-11-30T07:29:27.134Z,-1.43
2023-11-30T07:31:59.552Z,-1.39
2023-11-30T07:34:30.589Z,-1.34
2023-11-30T07:37:02.623Z,-1.30
2023-11-30T07:39:33.418Z,-1.27
2023-11-30T07:42:07.576Z,-1.25
2023-11-30T07:44:39.819Z,-1.24
2023-11-30T07:47:12.237Z,-1.21
2023-11-30T07:49:43.192Z,-1.17
2023-11-30T07:52:14.639Z,-1.12
2023-11-30T07:54:45.604Z,-1.10
2023-11-30T07:57:19.796Z,-1.08
2023-11-30T07:59:50.858Z,-1.04
2023-11-30T08:02:23.105Z,-0.99
2023-11-30T08:04:54.168Z,-0.90
2023-11-30T08:07:25.101Z,-0.82
2023-11-30T08:09:55.894Z,-0.73
2023-11-30T08:12:27.036Z,-0.66
2023-11-30T08:14:57.879Z,-0.56
2023-11-30T08:17:29.497Z,-0.45
2023-11-30T08:20:03.955Z,-0.36
2023-11-30T08:22:35.022Z,-0.26
2023-11-30T08:25:06.785Z,-0.13
2023-11-30T08:27:38.014Z,0.04
2023-11-30T08:30:15.936Z,0.30
2023-11-30T08:32:47.297Z,0.49
2023-11-30T08:35:19.707Z,0.67
2023-11-30T08:37:50.555Z,0.85
2023-11-30T08:40:23.764Z,1.03
2023-11-30T08:42:54.936Z,1.27
2023-11-30T08:45:28.771Z,1.49
2023-11-30T08:47:59.678Z,1.76
2023-11-30T08:50:30.993Z,2.17
2023-11-30T08:53:01.760Z,2.55
2023-11-30T08:55:34.098Z,3.00
2023-11-30T08:58:05.766Z,3.43
2023-11-30T09:00:36.779Z,3.91
2023-11-30T09:03:07.607Z,4.42
2023-11-30T09:05:38.382Z,4.79
2023-11-30T09:08:10.495Z,5.22
2023-11-30T09:10:41.395Z,5.68
2023-11-30T09:13:12.580Z,6.15
2023-11-30T09:15:43.676Z,6.57
2023-11-30T09:18:14.641Z,6.88
2023-11-30T09:20:45.469Z,7.07
2023-11-30T09:23:19.063Z,7.30
2023-11-30T09:25:50.089Z,7.53
2023-11-30T09:28:21.302Z,7.71
2023-11-30T09:30:52.253Z,7.76
2023-11-30T09:33:23.170Z,7.62
2023-11-30T09:35:54.125Z,7.37
2023-11-30T09:38:24.839Z,7.10
2023-11-30T09:40:56.578Z,7.02
2023-11-30T09:43:27.382Z,7.10
2023-11-30T09:45:58.187Z,6.93
2023-11-30T09:48:31.915Z,6.71
2023-11-30T09:51:03.462Z,6.45
2023-11-30T09:53:35.796Z,6.08
2023-11-30T09:56:07.396Z,5.72
2023-11-30T09:58:38.797Z,5.64
2023-11-30T10:01:11.555Z,5.43
2023-11-30T10:03:45.140Z,5.16
2023-11-30T10:06:16.421Z,5.08
2023-11-30T10:08:47.422Z,5.49
2023-11-30T10:11:21.144Z,5.72
2023-11-30T10:13:52.021Z,5.65
2023-11-30T10:16:23.310Z,5.56
2023-11-30T10:18:54.435Z,5.80
2023-11-30T10:21:25.429Z,6.35
2023-11-30T10:23:58.143Z,6.31
2023-11-30T10:26:32.395Z,6.09
2023-11-30T10:29:07.996Z,5.87
2023-11-30T10:31:40.445Z,5.75
2023-11-30T10:34:16.840Z,5.56
2023-11-30T10:36:48.381Z,5.31
2023-11-30T10:39:24.566Z,5.11
2023-11-30T10:41:58.846Z,4.93
2023-11-30T10:44:32.054Z,4.76
2023-11-30T10:47:03.496Z,4.61
2023-11-30T10:49:34.616Z,4.44
2023-11-30T10:52:07.880Z,4.29
2023-11-30T10:54:45.273Z,4.18
2023-11-30T10:57:16.629Z,4.08
2023-11-30T10:59:49.219Z,3.99
2023-11-30T11:02:20.193Z,3.92
2023-11-30T11:04:51.064Z,3.88
2023-11-30T11:07:22.652Z,3.84
2023-11-30T11:09:58.636Z,3.78
2023-11-30T11:12:41.428Z,3.72
2023-11-30T11:15:16.744Z,3.64
2023-11-30T11:17:53.352Z,3.55
2023-11-30T11:20:27.073Z,3.47
2023-11-30T11:22:59.335Z,3.42
2023-11-30T11:25:30.199Z,3.37
2023-11-30T11:28:02.003Z,3.32
2023-11-30T11:30:33.546Z,3.29
2023-11-30T11:33:06.378Z,3.26
2023-11-30T11:35:37.192Z,3.25
2023-11-30T11:38:07.976Z,3.24
2023-11-30T11:40:42.366Z,3.22
2023-11-30T11:43:13.118Z,3.17
2023-11-30T11:45:44.298Z,3.15
2023-11-30T11:48:18.467Z,3.11
2023-11-30T11:50:59.520Z,3.07
2023-11-30T11:53:30.353Z,3.04
2023-11-30T11:56:07.843Z,2.99
2023-11-30T11:58:40.433Z,2.96
2023-11-30T12:01:11.260Z,2.96
2023-11-30T12:03:51.599Z,2.94
2023-11-30T12:06:32.089Z,2.91
2023-11-30T12:09:14.257Z,2.88
2023-11-30T12:11:45.394Z,2.83
2023-11-30T12:14:16.832Z,2.80
2023-11-30T12:16:47.725Z,2.78
2023-11-30T12:19:21.143Z,2.76
2023-11-30T12:21:52.284Z,2.73
2023-11-30T12:24:23.621Z,2.72
2023-11-30T12:26:54.512Z,2.71
2023-11-30T12:29:25.365Z,2.66
2023-11-30T12:31:57.038Z,2.64
2023-11-30T12:34:28.071Z,2.61
2023-11-30T12:37:04.562Z,2.58
2023-11-30T12:39:35.650Z,2.56
2023-11-30T12:42:09.101Z,2.56
2023-11-30T12:44:39.827Z,2.57
2023-11-30T12:47:11.976Z,2.56
2023-11-30T12:49:43.575Z,2.56
2023-11-30T12:52:14.486Z,2.57
2023-11-30T12:54:45.720Z,2.59
2023-11-30T12:57:16.560Z,2.62
2023-11-30T12:59:47.817Z,2.64
2023-11-30T13:02:18.800Z,2.64
2023-11-30T13:04:51.076Z,2.66
2023-11-30T13:07:24.730Z,2.66
2023-11-30T13:09:55.587Z,2.66
2023-11-30T13:12:27.946Z,2.65
2023-11-30T13:14:58.982Z,2.64
2023-11-30T13:17:29.782Z,2.62
2023-11-30T13:20:00.533Z,2.61
2023-11-30T13:22:31.333Z,2.59
2023-11-30T13:25:02.772Z,2.58
2023-11-30T13:27:34.328Z,2.56
2023-11-30T13:30:05.530Z,2.55
2023-11-30T13:32:36.670Z,2.54
2023-11-30T13:35:10.344Z,2.53
2023-11-30T13:37:41.313Z,2.52
2023-11-30T13:40:13.286Z,2.52
2023-11-30T13:42:44.277Z,2.52
2023-11-30T13:45:15.381Z,2.53
2023-11-30T13:47:49.028Z,2.54
2023-11-30T13:50:30.461Z,2.53
2023-11-30T13:53:11.696Z,2.52
2023-11-30T13:55:43.790Z,2.49
2023-11-30T13:58:14.573Z,2.48
2023-11-30T14:00:45.426Z,2.46
2023-11-30T14:03:17.653Z,2.45
2023-11-30T14:05:48.844Z,2.41
2023-11-30T14:08:19.678Z,2.39
2023-11-30T14:10:52.396Z,2.36
2023-11-30T14:13:23.375Z,2.30
2023-11-30T14:15:54.293Z,2.26
2023-11-30T14:18:25.330Z,2.20
2023-11-30T14:20:56.302Z,2.13
2023-11-30T14:23:28.230Z,2.07
2023-11-30T14:26:01.305Z,1.99
2023-11-30T14:28:32.423Z,1.94
2023-11-30T14:31:06.618Z,1.89
2023-11-30T14:33:37.450Z,1.84
2023-11-30T14:36:09.482Z,1.82
2023-11-30T14:38:41.744Z,1.79
2023-11-30T14:41:12.843Z,1.74
2023-11-30T14:43:43.850Z,1.71
2023-11-30T14:46:15.370Z,1.68
2023-11-30T14:48:46.214Z,1.64
2023-11-30T14:51:17.080Z,1.61
2023-11-30T14:53:48.567Z,1.57
2023-11-30T14:56:19.343Z,1.53
2023-11-30T14:58:50.166Z,1.50
2023-11-30T15:01:21.354Z,1.47
2023-11-30T15:03:52.425Z,1.44
2023-11-30T15:06:24.699Z,1.41
2023-11-30T15:08:55.459Z,1.36
2023-11-30T15:11:26.363Z,1.32
2023-11-30T15:13:58.216Z,1.30
2023-11-30T15:16:30.177Z,1.27
2023-11-30T15:19:05.217Z,1.23
2023-11-30T15:21:36.219Z,1.20
2023-11-30T15:24:07.585Z,1.18
2023-11-30T15:26:38.365Z,1.15
2023-11-30T15:29:09.218Z,1.12
2023-11-30T15:31:40.077Z,1.09
2023-11-30T15:34:11.214Z,1.06
2023-11-30T15:36:45.367Z,1.03
2023-11-30T15:39:17.503Z,1.02
2023-11-30T15:41:48.573Z,1.01
2023-11-30T15:44:19.397Z,0.99
2023-11-30T15:46:51.113Z,0.96
2023-11-30T15:49:22.062Z,0.93
2023-11-30T15:51:52.841Z,0.91
2023-11-30T15:54:23.635Z,0.88
2023-11-30T15:56:54.561Z,0.85
2023-11-30T15:59:25.337Z,0.82
2023-11-30T16:01:56.356Z,0.80
2023-11-30T16:04:27.267Z,0.78
2023-11-30T16:06:58.119Z,0.78
2023-11-30T16:09:28.950Z,0.78
2023-11-30T16:12:00.180Z,0.78
2023-11-30T16:14:31.058Z,0.79
2023-11-30T16:17:03.226Z,0.80
2023-11-30T16:19:36.835Z,0.82
2023-11-30T16:22:07.792Z,0.83
2023-11-30T16:24:38.568Z,0.86
2023-11-30T16:27:09.993Z,0.87
2023-11-30T16:29:40.858Z,0.88
2023-11-30T16:32:11.938Z,0.91
2023-11-30T16:34:44.054Z,0.93
2023-11-30T16:37:14.928Z,0.94
2023-11-30T16:39:47.186Z,0.95
2023-11-30T16:42:18.044Z,0.94
2023-11-30T16:44:51.803Z,0.95
2023-11-30T16:47:22.580Z,0.97
2023-11-30T16:49:53.323Z,0.99
2023-11-30T16:52:24.126Z,1.00
2023-11-30T16:54:55.056Z,1.03
2023-11-30T16:57:25.926Z,1.05
2023-11-30T16:59:57.464Z,1.07
2023-11-30T17:02:29.200Z,1.09
2023-11-30T17:05:00.177Z,1.14
2023-11-30T17:07:31.033Z,1.17
2023-11-30T17:10:01.924Z,1.20
2023-11-30T17:12:32.871Z,1.22
2023-11-30T17:15:05.027Z,1.23
2023-11-30T17:17:37.195Z,1.24
2023-11-30T17:20:09.731Z,1.25
2023-11-30T17:22:40.530Z,1.25
2023-11-30T17:25:12.216Z,1.26
2023-11-30T17:27:42.989Z,1.28
2023-11-30T17:30:15.331Z,1.29
2023-11-30T17:32:46.247Z,1.30
2023-11-30T17:35:17.810Z,1.30
2023-11-30T17:37:48.886Z,1.31
2023-11-30T17:40:20.137Z,1.32
2023-11-30T17:42:51.169Z,1.32
2023-11-30T17:45:22.174Z,1.32
2023-11-30T17:47:55.028Z,1.33
2023-11-30T17:50:28.529Z,1.34
2023-11-30T17:52:59.451Z,1.34
2023-11-30T17:55:32.047Z,1.37
2023-11-30T17:58:03.410Z,1.39
2023-11-30T18:00:36.064Z,1.40
2023-11-30T18:03:07.133Z,1.42
2023-11-30T18:05:50.054Z,1.44
2023-11-30T18:08:24.308Z,1.45
2023-11-30T18:10:57.057Z,1.46
2023-11-30T18:13:29.965Z,1.48
2023-11-30T18:16:03.690Z,1.49
2023-11-30T18:18:35.163Z,1.51
2023-11-30T18:21:06.639Z,1.51
2023-11-30T18:23:37.851Z,1.50
2023-11-30T18:26:10.979Z,1.51
2023-11-30T18:28:47.779Z,1.52
2023-11-30T18:31:22.534Z,1.53
2023-11-30T18:33:55.019Z,1.54
2023-11-30T18:36:30.251Z,1.57
2023-11-30T18:39:00.065Z,1.58
2023-11-30T18:41:31.052Z,1.60
2023-11-30T18:44:06.096Z,1.59
2023-11-30T18:46:39.842Z,1.61
2023-11-30T18:49:10.959Z,1.62
2023-11-30T18:51:42.044Z,1.63
2023-11-30T18:54:18.718Z,1.65
2023-11-30T18:56:49.776Z,1.65
2023-11-30T18:59:21.926Z,1.66
2023-11-30T19:01:53.040Z,1.66
2023-11-30T19:04:24.118Z,1.67
2023-11-30T19:06:56.003Z,1.66
2023-11-30T19:09:27.242Z,1.66
2023-11-30T19:12:00.205Z,1.67
2023-11-30T19:14:40.746Z,1.66
2023-11-30T19:17:11.721Z,1.67
2023-11-30T19:19:42.636Z,1.68
2023-11-30T19:22:18.351Z,1.68
2023-11-30T19:24:54.177Z,1.69
2023-11-30T19:27:25.131Z,1.69
2023-11-30T19:29:56.259Z,1.70
2023-11-30T19:32:31.359Z,1.69
2023-11-30T19:35:02.928Z,1.69
2023-11-30T19:37:33.904Z,1.70
2023-11-30T19:40:05.427Z,1.70
2023-11-30T19:42:36.401Z,1.70
2023-11-30T19:45:09.012Z,1.72
2023-11-30T19:47:42.256Z,1.72
2023-11-30T19:50:13.475Z,1.74
2023-11-30T19:52:44.287Z,1.75
2023-11-30T19:55:16.088Z,1.75
2023-11-30T19:57:53.995Z,1.77
2023-11-30T20:00:26.169Z,1.79
2023-11-30T20:02:57.861Z,1.81
2023-11-30T20:05:28.830Z,1.82
2023-11-30T20:08:00.561Z,1.83
2023-11-30T20:10:32.281Z,1.83
2023-11-30T20:13:05.123Z,1.82
2023-11-30T20:15:36.276Z,1.83
2023-11-30T20:18:09.917Z,1.84
2023-11-30T20:20:40.885Z,1.86
2023-11-30T20:23:11.779Z,1.87
2023-11-30T20:25:42.789Z,1.88
2023-11-30T20:28:13.935Z,1.89
2023-11-30T20:30:47.763Z,1.89
2023-11-30T20:33:18.713Z,1.89
2023-11-30T20:35:49.755Z,1.87
2023-11-30T20:38:20.624Z,1.86
2023-11-30T20:40:52.150Z,1.84
2023-11-30T20:43:27.417Z,1.82
2023-11-30T20:45:59.051Z,1.79
2023-11-30T20:48:30.188Z,1.79
2023-11-30T20:51:01.347Z,1.77
2023-11-30T20:53:32.174Z,1.76
2023-11-30T20:56:03.976Z,1.73
2023-11-30T20:58:40.049Z,1.73
2023-11-30T21:01:13.065Z,1.71
2023-11-30T21:11:59.617Z,1.70
2023-11-30T21:14:31.224Z,1.69
2023-11-30T21:17:02.785Z,1.68
2023-11-30T21:19:34.241Z,1.69
2023-11-30T21:22:06.143Z,1.69
2023-11-30T21:24:39.967Z,1.68
2023-11-30T21:27:12.076Z,1.68
2023-11-30T21:29:43.611Z,1.67
2023-11-30T21:32:15.057Z,1.66
2023-11-30T21:34:46.942Z,1.66
2023-11-30T21:37:18.281Z,1.66
2023-11-30T21:39:49.846Z,1.65
2023-11-30T21:42:24.753Z,1.62
2023-11-30T21:44:56.500Z,1.59
2023-11-30T21:47:28.239Z,1.56
2023-11-30T21:49:59.755Z,1.53
2023-11-30T21:52:31.281Z,1.49
2023-11-30T21:55:08.139Z,1.47
2023-11-30T21:57:39.727Z,1.43
2023-11-30T22:00:13.635Z,1.36
2023-11-30T22:02:46.403Z,1.32
2023-11-30T22:05:26.786Z,1.28
2023-11-30T22:08:04.442Z,1.23
2023-11-30T22:10:35.745Z,1.17
2023-11-30T22:13:07.047Z,1.12
2023-11-30T22:15:38.539Z,1.07
2023-11-30T22:18:09.936Z,1.03
2023-11-30T22:20:44.940Z,1.01
2023-11-30T22:23:16.366Z,0.98
2023-11-30T22:25:53.341Z,0.95
2023-11-30T22:28:27.470Z,0.93
2023-11-30T22:30:59.015Z,0.90
2023-11-30T22:33:31.354Z,0.87
2023-11-30T22:36:02.968Z,0.86
2023-11-30T22:38:41.183Z,0.86
2023-11-30T22:41:17.358Z,0.87
2023-11-30T22:43:48.607Z,0.88
2023-11-30T22:46:20.899Z,0.89
2023-11-30T22:48:52.661Z,0.91
2023-11-30T22:51:24.920Z,0.91
2023-11-30T22:53:56.214Z,0.93
2023-11-30T22:56:30.284Z,0.94
2023-11-30T22:59:01.641Z,0.95
2023-11-30T23:01:33.045Z,0.96
2023-11-30T23:04:04.762Z,0.97
2023-11-30T23:06:36.373Z,0.98
2023-11-30T23:09:08.003Z,1.00
2023-11-30T23:11:39.287Z,1.00
2023-11-30T23:14:11.259Z,0.99
2023-11-30T23:16:42.537Z,0.96
2023-11-30T23:19:14.914Z,0.93
2023-11-30T23:21:46.619Z,0.90
2023-11-30T23:24:25.744Z,0.86
2023-11-30T23:27:00.544Z,0.82
2023-11-30T23:29:36.995Z,0.79
2023-11-30T23:32:09.845Z,0.75
2023-11-30T23:34:41.500Z,0.72
2023-11-30T23:37:13.016Z,0.69
2023-11-30T23:39:44.674Z,0.67
2023-11-30T23:42:16.015Z,0.65
2023-11-30T23:44:47.691Z,0.64
2023-11-30T23:47:18.970Z,0.63
2023-11-30T23:49:50.198Z,0.60
2023-11-30T23:52:21.492Z,0.57
2023-11-30T23:54:52.786Z,0.55
2023-11-30T23:57:24.103Z,0.53
2023-11-30T23:59:55.488Z,0.50
